createdAt,value
2018-05-25T00:01:10.232Z,13.40
2018-05-25T00:03:44.609Z,12.90
2018-05-25T00:06:18.367Z,12.80
2018-05-25T00:08:52.107Z,13.00
2018-05-25T00:11:25.733Z,13.10
2018-05-25T00:13:59.519Z,13.10
2018-05-25T00:16:33.657Z,13.10
2018-05-25T00:19:08.299Z,13.00
2018-05-25T00:21:42.476Z,13.00
2018-05-25T00:24:16.089Z,13.00
2018-05-25T00:26:50.019Z,13.00
2018-05-25T00:29:23.695Z,13.00
2018-05-25T00:31:57.210Z,12.80
2018-05-25T00:34:31.521Z,12.90
2018-05-25T00:37:05.203Z,12.80
2018-05-25T00:39:38.886Z,12.80
2018-05-25T00:42:12.424Z,12.90
2018-05-25T00:44:46.016Z,12.90
2018-05-25T00:47:19.663Z,12.80
2018-05-25T00:49:53.305Z,12.60
2018-05-25T00:52:26.944Z,12.60
2018-05-25T00:55:12.410Z,12.60
2018-05-25T00:57:47.157Z,12.60
2018-05-25T01:00:20.816Z,12.60
2018-05-25T01:02:55.156Z,12.50
2018-05-25T01:05:29.591Z,12.50
2018-05-25T01:08:03.195Z,12.50
2018-05-25T01:10:37.598Z,11.80
2018-05-25T01:13:11.188Z,11.80
2018-05-25T01:15:45.515Z,11.90
2018-05-25T01:18:20.625Z,12.00
2018-05-25T01:20:54.237Z,11.90
2018-05-25T01:23:28.861Z,11.90
2018-05-25T01:26:02.620Z,12.00
2018-05-25T01:28:36.419Z,11.90
2018-05-25T01:31:09.975Z,12.00
2018-05-25T01:33:43.581Z,12.10
2018-05-25T01:36:18.099Z,12.00
2018-05-25T01:38:51.694Z,11.90
2018-05-25T01:41:25.251Z,11.90
2018-05-25T01:43:58.805Z,11.80
2018-05-25T01:46:32.419Z,11.80
2018-05-25T01:49:06.001Z,11.80
2018-05-25T01:51:39.623Z,11.80
2018-05-25T01:54:13.318Z,11.70
2018-05-25T01:56:46.958Z,11.60
2018-05-25T01:59:21.433Z,11.50
2018-05-25T02:01:56.782Z,11.50
2018-05-25T02:04:30.374Z,11.50
2018-05-25T02:07:04.001Z,11.60
2018-05-25T02:09:37.558Z,11.60
2018-05-25T02:12:11.564Z,11.50
2018-05-25T02:14:45.231Z,11.50
2018-05-25T02:17:19.043Z,11.50
2018-05-25T02:19:53.420Z,11.50
2018-05-25T02:22:26.985Z,11.50
2018-05-25T02:25:00.607Z,11.50
2018-05-25T02:27:34.502Z,11.60
2018-05-25T02:30:08.118Z,11.80
2018-05-25T02:32:41.680Z,11.90
2018-05-25T02:35:15.225Z,11.90
2018-05-25T02:37:49.554Z,12.00
2018-05-25T02:40:24.057Z,12.00
2018-05-25T02:42:57.741Z,12.00
2018-05-25T02:45:31.390Z,12.10
2018-05-25T02:48:05.098Z,12.20
2018-05-25T02:50:38.781Z,12.30
2018-05-25T02:53:13.102Z,12.20
2018-05-25T02:55:46.694Z,12.10
2018-05-25T02:58:20.292Z,12.00
2018-05-25T03:00:54.813Z,11.80
2018-05-25T03:03:28.369Z,11.80
2018-05-25T03:06:02.015Z,11.70
2018-05-25T03:08:35.567Z,11.70
2018-05-25T03:11:10.122Z,11.70
2018-05-25T03:13:43.736Z,11.70
2018-05-25T03:16:17.482Z,11.60
2018-05-25T03:18:52.067Z,11.60
2018-05-25T03:21:25.864Z,11.60
2018-05-25T03:23:59.382Z,11.40
2018-05-25T03:26:34.009Z,11.20
2018-05-25T03:29:08.192Z,11.20
2018-05-25T03:31:42.103Z,11.20
2018-05-25T03:34:15.720Z,11.20
2018-05-25T03:36:49.314Z,11.00
2018-05-25T03:39:22.915Z,10.70
2018-05-25T03:41:56.443Z,10.00
2018-05-25T03:44:30.404Z,10.20
2018-05-25T03:47:04.369Z,10.40
2018-05-25T03:49:38.860Z,10.50
2018-05-25T03:52:12.697Z,10.50
2018-05-25T03:54:46.420Z,10.60
2018-05-25T03:57:19.994Z,10.60
2018-05-25T04:00:05.593Z,10.60
2018-05-25T04:02:39.172Z,10.70
2018-05-25T04:05:12.951Z,10.70
2018-05-25T04:07:46.903Z,10.80
2018-05-25T04:10:20.667Z,10.80
2018-05-25T04:12:54.287Z,10.90
2018-05-25T04:15:27.868Z,10.80
2018-05-25T04:18:01.715Z,11.00
2018-05-25T04:20:36.273Z,11.20
2018-05-25T04:23:10.018Z,11.40
2018-05-25T04:25:44.321Z,11.50
2018-05-25T04:28:18.764Z,11.60
2018-05-25T04:30:53.104Z,11.70
2018-05-25T04:33:27.077Z,11.70
2018-05-25T04:36:00.771Z,11.70
2018-05-25T04:38:34.461Z,11.80
2018-05-25T04:41:08.469Z,11.80
2018-05-25T04:43:42.476Z,11.90
2018-05-25T04:46:16.110Z,12.00
2018-05-25T04:48:49.797Z,12.00
2018-05-25T04:51:23.612Z,12.00
2018-05-25T04:53:57.429Z,12.10
2018-05-25T04:56:31.229Z,12.20
2018-05-25T04:59:05.014Z,12.20
2018-05-25T05:01:38.658Z,12.20
2018-05-25T05:04:12.275Z,12.30
2018-05-25T05:06:46.042Z,12.30
2018-05-25T05:09:19.644Z,12.20
2018-05-25T05:11:54.077Z,12.60
2018-05-25T05:14:27.846Z,12.50
2018-05-25T05:17:01.487Z,12.70
2018-05-25T05:19:35.198Z,12.90
2018-05-25T05:22:08.758Z,13.00
2018-05-25T05:24:42.277Z,13.10
2018-05-25T05:27:15.864Z,13.30
2018-05-25T05:29:50.175Z,13.50
2018-05-25T05:32:24.267Z,13.50
2018-05-25T05:34:58.718Z,13.40
2018-05-25T05:37:32.292Z,13.40
2018-05-25T05:40:05.946Z,13.60
2018-05-25T05:42:39.623Z,13.60
2018-05-25T05:45:13.219Z,13.50
2018-05-25T05:47:46.775Z,13.50
2018-05-25T05:50:20.333Z,13.70
2018-05-25T05:52:54.120Z,13.70
2018-05-25T05:55:27.714Z,13.80
2018-05-25T05:58:01.509Z,14.00
2018-05-25T06:00:35.120Z,14.30
2018-05-25T06:03:08.760Z,14.50
2018-05-25T06:05:42.434Z,14.70
2018-05-25T06:08:15.938Z,14.80
2018-05-25T06:10:49.537Z,15.00
2018-05-25T06:13:24.157Z,14.70
2018-05-25T06:15:57.888Z,14.70
2018-05-25T06:18:31.453Z,14.90
2018-05-25T06:21:05.078Z,15.00
2018-05-25T06:23:38.953Z,15.20
2018-05-25T06:26:13.498Z,15.40
2018-05-25T06:28:47.584Z,15.30
2018-05-25T06:31:21.221Z,15.60
2018-05-25T06:33:55.121Z,15.80
2018-05-25T06:36:29.204Z,15.90
2018-05-25T06:39:03.559Z,16.20
2018-05-25T06:41:38.168Z,16.30
2018-05-25T06:44:11.760Z,16.30
2018-05-25T06:46:45.395Z,16.50
2018-05-25T06:49:19.066Z,16.70
2018-05-25T06:51:52.669Z,16.80
2018-05-25T06:54:26.491Z,16.90
2018-05-25T06:57:00.243Z,17.10
2018-05-25T06:59:34.167Z,17.20
2018-05-25T07:02:07.744Z,17.20
2018-05-25T07:04:42.125Z,17.50
2018-05-25T07:07:15.830Z,17.50
2018-05-25T07:09:49.409Z,17.50
2018-05-25T07:12:23.043Z,17.50
2018-05-25T07:14:56.606Z,17.40
2018-05-25T07:17:30.206Z,17.60
2018-05-25T07:20:04.105Z,17.70
2018-05-25T07:22:37.890Z,17.90
2018-05-25T07:25:12.352Z,18.30
2018-05-25T07:27:46.664Z,18.40
2018-05-25T07:30:20.395Z,18.40
2018-05-25T07:32:54.258Z,18.50
2018-05-25T07:35:27.903Z,18.70
2018-05-25T07:38:01.763Z,18.80
2018-05-25T07:40:36.114Z,19.20
2018-05-25T07:43:09.801Z,19.20
2018-05-25T07:45:43.396Z,19.30
2018-05-25T07:48:17.942Z,19.70
2018-05-25T07:50:51.662Z,19.70
2018-05-25T07:53:25.417Z,19.80
2018-05-25T07:55:59.070Z,19.80
2018-05-25T07:58:32.880Z,19.90
2018-05-25T08:01:06.480Z,20.00
2018-05-25T08:03:40.308Z,20.00
2018-05-25T08:06:13.867Z,20.10
2018-05-25T08:08:47.601Z,20.30
2018-05-25T08:11:21.376Z,20.30
2018-05-25T08:13:55.098Z,20.50
2018-05-25T08:16:29.632Z,20.50
2018-05-25T08:19:04.051Z,20.50
2018-05-25T08:21:37.873Z,20.50
2018-05-25T08:24:11.646Z,20.50
2018-05-25T08:26:45.283Z,20.70
2018-05-25T08:29:19.145Z,20.70
2018-05-25T08:31:52.806Z,20.50
2018-05-25T08:34:26.626Z,20.30
2018-05-25T08:37:01.092Z,20.60
2018-05-25T08:39:35.626Z,20.80
2018-05-25T08:42:10.145Z,20.80
2018-05-25T08:44:43.956Z,20.80
2018-05-25T08:47:17.701Z,20.90
2018-05-25T08:49:51.617Z,20.90
2018-05-25T08:52:25.351Z,21.00
2018-05-25T08:54:59.296Z,20.80
2018-05-25T08:57:33.807Z,20.80
2018-05-25T09:00:07.699Z,20.80
2018-05-25T09:02:41.436Z,20.90
2018-05-25T09:05:15.279Z,21.10
2018-05-25T09:07:49.827Z,21.20
2018-05-25T09:10:24.364Z,21.20
2018-05-25T09:12:58.042Z,21.20
2018-05-25T09:15:31.895Z,21.30
2018-05-25T09:18:05.944Z,21.30
2018-05-25T09:20:39.650Z,21.30
2018-05-25T09:23:13.395Z,21.40
2018-05-25T09:25:47.753Z,21.70
2018-05-25T09:28:21.372Z,21.70
2018-05-25T09:30:54.965Z,21.90
2018-05-25T09:33:29.476Z,22.20
2018-05-25T09:36:03.177Z,22.20
2018-05-25T09:38:36.695Z,22.30
2018-05-25T09:41:10.220Z,22.40
2018-05-25T09:43:44.696Z,22.60
2018-05-25T09:46:19.223Z,22.70
2018-05-25T09:48:53.176Z,22.70
2018-05-25T09:51:26.933Z,22.90
2018-05-25T09:54:00.584Z,23.00
2018-05-25T09:56:34.157Z,23.20
2018-05-25T09:59:07.875Z,23.20
2018-05-25T10:01:42.988Z,22.80
2018-05-25T10:04:16.714Z,22.70
2018-05-25T10:06:50.282Z,22.90
2018-05-25T10:09:24.023Z,22.80
2018-05-25T10:11:58.052Z,22.50
2018-05-25T10:14:31.744Z,22.10
2018-05-25T10:17:05.296Z,21.90
2018-05-25T10:19:38.892Z,22.10
2018-05-25T10:22:12.789Z,22.30
2018-05-25T10:24:46.418Z,22.60
2018-05-25T10:27:20.009Z,22.60
2018-05-25T10:29:54.541Z,22.90
2018-05-25T10:32:28.890Z,22.90
2018-05-25T10:35:02.614Z,22.90
2018-05-25T10:37:36.301Z,23.00
2018-05-25T10:40:10.670Z,23.10
2018-05-25T10:42:45.189Z,23.30
2018-05-25T10:45:18.724Z,23.30
2018-05-25T10:47:52.312Z,23.30
2018-05-25T10:50:26.830Z,23.30
2018-05-25T10:53:00.422Z,23.20
2018-05-25T10:55:34.070Z,23.30
2018-05-25T10:58:08.454Z,23.50
2018-05-25T11:00:42.174Z,23.60
2018-05-25T11:03:16.565Z,23.50
2018-05-25T11:05:50.162Z,23.50
2018-05-25T11:08:24.230Z,23.60
2018-05-25T11:10:58.590Z,23.60
2018-05-25T11:13:32.160Z,23.60
2018-05-25T11:16:05.915Z,23.50
2018-05-25T11:18:40.603Z,23.30
2018-05-25T11:21:14.195Z,23.30
2018-05-25T11:23:47.960Z,23.50
2018-05-25T11:26:21.684Z,23.70
2018-05-25T11:28:55.465Z,23.80
2018-05-25T11:31:29.454Z,23.70
2018-05-25T11:34:03.077Z,23.50
2018-05-25T11:36:36.821Z,23.70
2018-05-25T11:39:11.384Z,24.30
2018-05-25T11:41:44.980Z,24.30
2018-05-25T11:44:18.863Z,23.80
2018-05-25T11:46:53.303Z,23.60
2018-05-25T11:49:26.900Z,23.60
2018-05-25T11:52:00.417Z,23.70
2018-05-25T11:54:33.984Z,23.90
2018-05-25T11:57:07.593Z,24.10
2018-05-25T11:59:41.245Z,23.90
2018-05-25T12:02:15.744Z,23.60
2018-05-25T12:04:49.557Z,23.60
2018-05-25T12:07:23.263Z,23.80
2018-05-25T12:09:57.751Z,24.00
2018-05-25T12:12:31.361Z,24.00
2018-05-25T12:15:04.968Z,24.10
2018-05-25T12:17:38.538Z,24.40
2018-05-25T12:20:12.189Z,24.20
2018-05-25T12:22:45.785Z,24.20
2018-05-25T12:25:19.339Z,24.40
2018-05-25T12:27:53.885Z,24.70
2018-05-25T12:30:27.588Z,24.60
2018-05-25T12:33:01.116Z,24.70
2018-05-25T12:35:34.814Z,24.60
2018-05-25T12:38:08.522Z,24.30
2018-05-25T12:40:42.123Z,24.50
2018-05-25T12:43:15.843Z,24.20
2018-05-25T12:45:49.747Z,24.40
2018-05-25T12:48:23.374Z,24.40
2018-05-25T12:50:57.037Z,24.50
2018-05-25T12:53:31.529Z,24.50
2018-05-25T12:56:05.053Z,24.50
2018-05-25T12:58:38.633Z,24.40
2018-05-25T13:01:13.160Z,24.80
2018-05-25T13:03:47.679Z,24.90
2018-05-25T13:06:21.446Z,24.90
2018-05-25T13:08:55.806Z,24.70
2018-05-25T13:11:29.375Z,24.70
2018-05-25T13:14:03.116Z,24.80
2018-05-25T13:16:36.848Z,25.00
2018-05-25T13:19:10.627Z,24.80
2018-05-25T13:21:44.210Z,24.60
2018-05-25T13:24:18.824Z,24.70
2018-05-25T13:26:52.443Z,24.70
2018-05-25T13:29:26.152Z,24.30
2018-05-25T13:31:59.876Z,24.50
2018-05-25T13:34:33.561Z,24.50
2018-05-25T13:37:07.140Z,24.60
2018-05-25T13:39:40.869Z,24.40
2018-05-25T13:42:14.598Z,24.30
2018-05-25T13:44:48.368Z,24.40
2018-05-25T13:47:22.124Z,24.60
2018-05-25T13:49:55.901Z,24.70
2018-05-25T13:52:29.565Z,24.80
2018-05-25T13:55:04.090Z,25.30
2018-05-25T13:57:37.707Z,25.40
2018-05-25T14:00:12.505Z,25.60
2018-05-25T14:02:46.265Z,25.50
2018-05-25T14:05:20.325Z,25.40
2018-05-25T14:07:54.044Z,25.40
2018-05-25T14:10:27.688Z,25.50
2018-05-25T14:13:01.256Z,25.00
2018-05-25T14:15:34.843Z,25.10
2018-05-25T14:18:10.078Z,24.90
2018-05-25T14:20:43.777Z,24.90
2018-05-25T14:23:17.592Z,25.00
2018-05-25T14:25:51.590Z,25.20
2018-05-25T14:28:26.006Z,25.60
2018-05-25T14:30:59.616Z,25.60
2018-05-25T14:33:33.247Z,25.60
2018-05-25T14:36:07.731Z,25.40
2018-05-25T14:38:41.237Z,25.40
2018-05-25T14:41:15.151Z,25.50
2018-05-25T14:43:48.785Z,25.50
2018-05-25T14:46:22.936Z,25.50
2018-05-25T14:48:56.572Z,25.50
2018-05-25T14:51:30.223Z,25.90
2018-05-25T14:54:04.001Z,26.00
2018-05-25T14:56:37.714Z,26.10
2018-05-25T14:59:11.403Z,25.40
2018-05-25T15:01:44.980Z,25.50
2018-05-25T15:04:18.601Z,26.00
2018-05-25T15:06:53.202Z,25.70
2018-05-25T15:09:26.791Z,25.70
2018-05-25T15:12:00.366Z,25.80
2018-05-25T15:14:34.714Z,26.00
2018-05-25T15:17:08.313Z,26.00
2018-05-25T15:19:42.834Z,25.50
2018-05-25T15:22:16.467Z,25.50
2018-05-25T15:24:50.148Z,25.70
2018-05-25T15:27:23.753Z,25.70
2018-05-25T15:29:57.663Z,25.90
2018-05-25T15:32:32.053Z,25.30
2018-05-25T15:35:06.496Z,25.20
2018-05-25T15:37:40.102Z,25.20
2018-05-25T15:40:14.538Z,25.40
2018-05-25T15:42:48.510Z,25.40
2018-05-25T15:45:22.126Z,25.10
2018-05-25T15:47:55.846Z,25.00
2018-05-25T15:50:29.419Z,24.80
2018-05-25T15:53:03.069Z,24.80
2018-05-25T15:55:37.540Z,24.40
2018-05-25T15:58:11.257Z,24.40
2018-05-25T16:00:44.984Z,24.30
2018-05-25T16:03:18.957Z,24.20
2018-05-25T16:05:53.444Z,24.20
2018-05-25T16:08:27.201Z,24.20
2018-05-25T16:11:01.086Z,24.20
2018-05-25T16:13:34.907Z,24.20
2018-05-25T16:16:08.911Z,24.30
2018-05-25T16:18:42.651Z,24.40
2018-05-25T16:21:16.512Z,24.30
2018-05-25T16:23:50.525Z,24.30
2018-05-25T16:26:24.171Z,24.20
2018-05-25T16:28:58.356Z,24.10
2018-05-25T16:31:32.351Z,24.10
2018-05-25T16:34:06.763Z,22.90
2018-05-25T16:36:40.513Z,22.80
2018-05-25T16:39:14.524Z,22.30
2018-05-25T16:41:48.111Z,22.00
2018-05-25T16:44:21.648Z,21.70
2018-05-25T16:46:56.125Z,22.20
2018-05-25T16:49:29.704Z,22.10
2018-05-25T16:52:03.932Z,21.60
2018-05-25T16:54:37.574Z,21.40
2018-05-25T16:57:11.247Z,21.40
2018-05-25T16:59:44.999Z,21.40
2018-05-25T17:02:18.960Z,21.40
2018-05-25T17:04:52.700Z,21.50
2018-05-25T17:07:26.281Z,21.50
2018-05-25T17:09:59.980Z,21.40
2018-05-25T17:12:33.568Z,21.50
2018-05-25T17:15:07.055Z,21.30
2018-05-25T17:17:41.071Z,21.00
2018-05-25T17:20:14.796Z,20.90
2018-05-25T17:22:48.375Z,20.90
2018-05-25T17:25:22.186Z,21.00
2018-05-25T17:27:55.726Z,21.10
2018-05-25T17:30:29.359Z,21.20
2018-05-25T17:33:03.081Z,21.40
2018-05-25T17:35:37.593Z,21.20
2018-05-25T17:38:11.201Z,21.20
2018-05-25T17:40:45.503Z,21.00
2018-05-25T17:43:20.062Z,21.10
2018-05-25T17:45:53.650Z,21.10
2018-05-25T17:48:27.273Z,20.90
2018-05-25T17:51:01.084Z,20.80
2018-05-25T17:53:34.771Z,20.90
2018-05-25T17:56:08.732Z,20.90
2018-05-25T17:58:42.458Z,20.80
2018-05-25T18:01:16.395Z,20.80
2018-05-25T18:03:50.145Z,20.60
2018-05-25T18:06:24.362Z,20.60
2018-05-25T18:08:57.921Z,20.50
2018-05-25T18:11:31.419Z,20.60
2018-05-25T18:14:05.033Z,20.50
2018-05-25T18:16:39.306Z,20.50
2018-05-25T18:19:13.120Z,20.50
2018-05-25T18:21:47.534Z,20.50
2018-05-25T18:24:21.236Z,20.50
2018-05-25T18:26:54.878Z,20.40
2018-05-25T18:29:28.443Z,20.40
2018-05-25T18:32:02.534Z,20.30
2018-05-25T18:34:36.139Z,20.20
2018-05-25T18:37:09.737Z,20.20
2018-05-25T18:39:44.268Z,20.40
2018-05-25T18:42:18.556Z,20.40
2018-05-25T18:44:52.294Z,20.50
2018-05-25T18:47:25.848Z,20.40
2018-05-25T18:49:59.579Z,20.50
2018-05-25T18:52:33.189Z,20.40
2018-05-25T18:55:07.104Z,20.40
2018-05-25T18:57:41.526Z,20.30
2018-05-25T19:00:15.652Z,20.30
2018-05-25T19:02:49.730Z,20.40
2018-05-25T19:05:23.275Z,20.40
2018-05-25T19:07:56.954Z,20.40
2018-05-25T19:10:30.494Z,20.40
2018-05-25T19:13:05.069Z,20.40
2018-05-25T19:15:38.776Z,20.30
2018-05-25T19:18:13.314Z,20.30
2018-05-25T19:20:47.197Z,20.30
2018-05-25T19:23:20.749Z,20.30
2018-05-25T19:25:54.497Z,20.30
2018-05-25T19:28:28.815Z,20.10
2018-05-25T19:31:02.326Z,20.10
2018-05-25T19:33:36.687Z,19.90
2018-05-25T19:36:10.321Z,19.90
2018-05-25T19:38:44.719Z,20.00
2018-05-25T19:41:18.975Z,20.00
2018-05-25T19:43:52.556Z,20.00
2018-05-25T19:46:26.335Z,19.90
2018-05-25T19:48:59.926Z,19.80
2018-05-25T19:51:33.716Z,19.80
2018-05-25T19:54:07.400Z,19.80
2018-05-25T19:56:41.112Z,19.70
2018-05-25T19:59:14.822Z,19.50
2018-05-25T20:01:49.318Z,19.40
2018-05-25T20:04:23.076Z,19.40
2018-05-25T20:06:57.068Z,19.30
2018-05-25T20:09:30.731Z,19.20
2018-05-25T20:12:04.572Z,19.20
2018-05-25T20:14:38.965Z,19.30
2018-05-25T20:17:12.753Z,19.20
2018-05-25T20:19:46.307Z,19.30
2018-05-25T20:22:20.260Z,19.20
2018-05-25T20:24:53.816Z,19.10
2018-05-25T20:27:27.389Z,19.10
2018-05-25T20:30:00.962Z,19.10
2018-05-25T20:32:34.591Z,19.10
2018-05-25T20:35:08.518Z,19.10
2018-05-25T20:37:42.216Z,19.00
2018-05-25T20:40:15.824Z,18.80
2018-05-25T20:42:49.670Z,18.60
2018-05-25T20:45:23.284Z,18.50
2018-05-25T20:47:57.618Z,18.40
2018-05-25T20:50:31.189Z,18.40
2018-05-25T20:53:04.919Z,18.50
2018-05-25T20:55:38.581Z,18.50
2018-05-25T20:58:12.228Z,18.40
2018-05-25T21:00:45.866Z,18.40
2018-05-25T21:03:19.681Z,18.40
2018-05-25T21:05:53.530Z,18.10
2018-05-25T21:08:27.247Z,17.80
2018-05-25T21:11:01.572Z,16.60
2018-05-25T21:13:35.317Z,16.50
2018-05-25T21:16:09.643Z,17.00
2018-05-25T21:18:43.406Z,17.00
2018-05-25T21:21:17.171Z,17.20
2018-05-25T21:23:51.183Z,17.30
2018-05-25T21:26:25.569Z,17.40
2018-05-25T21:29:00.333Z,17.30
2018-05-25T21:31:34.767Z,17.20
2018-05-25T21:34:08.376Z,17.20
2018-05-25T21:36:42.084Z,17.30
2018-05-25T21:39:15.636Z,17.30
2018-05-25T21:41:49.200Z,17.30
2018-05-25T21:44:22.781Z,17.00
2018-05-25T21:46:57.011Z,17.00
2018-05-25T21:49:30.597Z,17.00
2018-05-25T21:52:04.320Z,17.00
2018-05-25T21:54:38.389Z,17.00
2018-05-25T21:57:12.132Z,16.90
2018-05-25T21:59:45.661Z,16.90
2018-05-25T22:02:19.454Z,16.90
2018-05-25T22:04:53.015Z,16.80
2018-05-25T22:07:26.740Z,16.80
2018-05-25T22:10:00.292Z,16.80
2018-05-25T22:12:33.909Z,16.50
2018-05-25T22:15:07.921Z,16.50
2018-05-25T22:17:41.915Z,16.60
2018-05-25T22:20:15.471Z,16.60
2018-05-25T22:22:49.571Z,16.60
2018-05-25T22:25:23.177Z,16.50
2018-05-25T22:27:57.678Z,16.40
2018-05-25T22:30:31.304Z,16.40
2018-05-25T22:33:04.966Z,16.30
2018-05-25T22:35:38.502Z,16.20
2018-05-25T22:38:12.072Z,16.20
2018-05-25T22:40:45.667Z,16.10
2018-05-25T22:43:31.051Z,16.10
2018-05-25T22:46:16.617Z,16.00
2018-05-25T22:49:02.346Z,16.00
2018-05-25T22:51:47.878Z,16.00
2018-05-25T22:54:30.606Z,16.00
2018-05-25T22:57:04.396Z,16.00
2018-05-25T22:59:38.023Z,16.00
2018-05-25T23:02:11.549Z,15.90
2018-05-25T23:04:45.136Z,15.80
2018-05-25T23:07:19.428Z,15.70
2018-05-25T23:09:53.172Z,15.70
2018-05-25T23:12:27.285Z,15.50
2018-05-25T23:15:00.967Z,15.50
2018-05-25T23:17:34.874Z,15.40
2018-05-25T23:20:09.291Z,15.40
2018-05-25T23:22:42.918Z,15.40
2018-05-25T23:25:17.504Z,15.20
2018-05-25T23:27:51.127Z,15.20
2018-05-25T23:30:25.211Z,15.30
2018-05-25T23:32:59.755Z,15.20
2018-05-25T23:35:33.461Z,15.20
2018-05-25T23:38:07.002Z,15.20
2018-05-25T23:40:40.778Z,15.20
2018-05-25T23:43:14.589Z,15.20
2018-05-25T23:45:48.311Z,15.30
2018-05-25T23:48:21.902Z,15.20
2018-05-25T23:50:56.276Z,15.20
2018-05-25T23:53:30.011Z,15.10
2018-05-25T23:56:03.589Z,15.10
2018-05-25T23:58:37.193Z,15.10
